Time;durP1;ratioP1;P1;durP2;ratioP2;P2;SDS_P1;SDS_P2;PMS_P1;PMS_P2;Temp;Humidity;BMP_temperature;BMP_pressure;BME280_temperature;BME280_humidity;BME280_pressure;Samples;Min_cycle;Max_cycle;Signal;HPM_P1;HPM_P2
2023/11/29 00:01:58;;;;;;;10.93;6.03;;;;;;;0.19;100.00;100397.69;5090256;28;20064;-35
2023/11/29 00:04:23;;;;;;;8.27;6.27;;;;;;;0.22;100.00;100399.19;5089500;28;20086;-35
2023/11/29 00:06:48;;;;;;;8.00;6.20;;;;;;;0.27;100.00;100401.31;5089776;28;20078;-35
2023/11/29 00:09:14;;;;;;;7.97;6.03;;;;;;;0.27;100.00;100404.81;5075751;28;20086;-35
2023/11/29 00:11:39;;;;;;;7.77;6.37;;;;;;;0.29;100.00;100401.97;5076257;28;20028;-35
2023/11/29 00:14:05;;;;;;;9.35;6.40;;;;;;;0.31;100.00;100399.97;5076203;28;20024;-35
2023/11/29 00:16:31;;;;;;;8.60;6.43;;;;;;;0.32;100.00;100398.97;5076547;28;20028;-35
2023/11/29 00:18:57;;;;;;;7.55;6.40;;;;;;;0.24;100.00;100392.69;5075708;28;20032;-35
2023/11/29 00:21:22;;;;;;;8.85;5.75;;;;;;;0.32;100.00;100401.63;5076323;28;20028;-35
2023/11/29 00:23:48;;;;;;;6.15;5.53;;;;;;;0.35;100.00;100393.31;5076551;28;20028;-35
2023/11/29 00:26:13;;;;;;;8.30;6.33;;;;;;;0.38;100.00;100399.06;5076808;28;20059;-35
2023/11/29 00:28:38;;;;;;;10.23;6.43;;;;;;;0.39;100.00;100389.25;5076174;28;20024;-35
2023/11/29 00:31:04;;;;;;;8.17;5.83;;;;;;;0.44;100.00;100392.22;5076186;28;20587;-35
2023/11/29 00:33:29;;;;;;;6.45;5.70;;;;;;;0.51;100.00;100447.22;5076429;28;20028;-35
2023/11/29 00:35:55;;;;;;;8.50;5.90;;;;;;;0.58;100.00;100443.84;5075463;28;20384;-34
2023/11/29 00:38:21;;;;;;;8.95;5.90;;;;;;;0.64;100.00;100444.00;5075954;28;20346;-35
2023/11/29 00:40:46;;;;;;;9.52;7.72;;;;;;;0.74;100.00;100422.47;5076511;28;20120;-35
2023/11/29 00:43:12;;;;;;;9.07;7.17;;;;;;;0.78;100.00;100405.13;5076165;28;20454;-35
2023/11/29 00:45:37;;;;;;;8.50;7.40;;;;;;;0.84;100.00;100387.63;5075932;28;20542;-35
2023/11/29 00:48:03;;;;;;;11.07;7.93;;;;;;;0.85;100.00;100389.28;5075591;28;20043;-35
2023/11/29 00:50:28;;;;;;;9.05;7.32;;;;;;;0.76;100.00;100392.00;5075864;28;20028;-35
2023/11/29 00:52:53;;;;;;;8.90;7.37;;;;;;;0.96;100.00;100424.28;5075954;28;20046;-35
2023/11/29 00:55:19;;;;;;;8.73;7.20;;;;;;;0.93;100.00;100423.84;5075391;28;20109;-35
2023/11/29 00:57:44;;;;;;;9.43;7.60;;;;;;;1.03;100.00;100424.41;5075379;28;20070;-35
2023/11/29 01:00:10;;;;;;;9.17;6.57;;;;;;;1.06;100.00;100432.03;5075889;28;20029;-35
2023/11/29 01:02:36;;;;;;;7.90;7.07;;;;;;;1.07;100.00;100419.53;5075860;28;20021;-35
2023/11/29 01:05:01;;;;;;;8.37;6.87;;;;;;;1.05;100.00;100406.41;5074882;28;20487;-35
2023/11/29 01:07:27;;;;;;;9.15;7.70;;;;;;;1.01;100.00;100408.59;5075538;28;20086;-35
2023/11/29 01:09:52;;;;;;;9.52;6.88;;;;;;;0.92;100.00;100398.19;5075085;28;20024;-35
2023/11/29 01:12:17;;;;;;;8.90;7.10;;;;;;;0.86;100.00;100402.41;5075019;28;20032;-35
2023/11/29 01:14:43;;;;;;;8.00;7.13;;;;;;;0.85;100.00;100405.25;5074726;28;20036;-35
2023/11/29 01:17:08;;;;;;;7.57;6.73;;;;;;;0.80;100.00;100389.81;5075215;28;20031;-35
2023/11/29 01:19:34;;;;;;;9.77;7.33;;;;;;;0.70;100.00;100395.38;5073998;28;20033;-35
2023/11/29 01:21:59;;;;;;;7.90;7.10;;;;;;;0.61;100.00;100396.44;5075783;28;20025;-35
2023/11/29 01:24:25;;;;;;;9.85;7.25;;;;;;;0.54;100.00;100386.66;5075598;28;20031;-35
2023/11/29 01:26:50;;;;;;;8.40;7.43;;;;;;;0.46;100.00;100379.59;5075433;28;20036;-35
2023/11/29 01:29:16;;;;;;;9.57;7.87;;;;;;;0.44;100.00;100387.75;5090603;28;20419;-35
2023/11/29 01:31:41;;;;;;;8.13;7.30;;;;;;;0.41;100.00;100376.63;5074678;28;20369;-35
2023/11/29 01:34:06;;;;;;;8.60;7.73;;;;;;;0.30;100.00;100363.75;5074684;28;20021;-35
2023/11/29 01:36:32;;;;;;;7.70;6.93;;;;;;;0.35;100.00;100377.34;5075141;28;20025;-35
2023/11/29 01:38:57;;;;;;;8.00;7.20;;;;;;;0.23;100.00;100382.22;5074254;28;20047;-35
2023/11/29 01:41:22;;;;;;;7.07;6.33;;;;;;;0.31;100.00;100397.31;5074530;28;20051;-35
2023/11/29 01:43:48;;;;;;;8.00;7.20;;;;;;;0.29;100.00;100381.50;5074163;28;20020;-35
2023/11/29 01:46:13;;;;;;;7.67;6.13;;;;;;;0.27;100.00;100372.88;5074484;28;20033;-35
2023/11/29 01:48:39;;;;;;;7.70;6.97;;;;;;;0.23;100.00;100367.06;5074379;28;20029;-35
2023/11/29 01:51:05;;;;;;;7.57;6.88;;;;;;;0.21;100.00;100353.16;5074394;28;20464;-35
2023/11/29 01:53:31;;;;;;;8.13;7.32;;;;;;;0.30;100.00;100334.50;5074334;28;20024;-35
2023/11/29 01:55:57;;;;;;;8.63;7.85;;;;;;;0.25;100.00;100316.41;5073977;28;20040;-35
2023/11/29 01:58:24;;;;;;;9.32;8.27;;;;;;;0.16;100.00;100310.31;5073884;28;20028;-35
2023/11/29 02:00:51;;;;;;;8.50;7.53;;;;;;;0.19;100.00;100303.78;5074461;28;20028;-35
2023/11/29 02:03:18;;;;;;;9.75;8.43;;;;;;;0.17;100.00;100309.28;5074358;28;20424;-36
2023/11/29 02:05:44;;;;;;;10.00;8.60;;;;;;;0.12;100.00;100286.91;5074316;28;20116;-35
2023/11/29 02:08:10;;;;;;;10.63;9.52;;;;;;;0.09;100.00;100288.06;5073727;28;20104;-35
2023/11/29 02:10:36;;;;;;;10.80;9.80;;;;;;;0.02;100.00;100284.47;5074263;28;20028;-35
2023/11/29 02:13:02;;;;;;;12.07;10.85;;;;;;;-0.02;100.00;100285.81;5073879;28;20463;-36
2023/11/29 02:15:27;;;;;;;10.65;9.65;;;;;;;-0.01;100.00;100282.16;5073819;28;20028;-35
2023/11/29 02:17:52;;;;;;;12.03;10.83;;;;;;;0.03;100.00;100279.97;5074159;28;20028;-36
2023/11/29 02:20:18;;;;;;;12.53;10.87;;;;;;;0.05;100.00;100294.75;5073611;28;20017;-36
2023/11/29 02:22:58;;;;;;;11.50;10.35;;;;;;;0.01;100.00;100280.16;5073814;28;20107;-36
2023/11/29 02:25:23;;;;;;;11.82;10.43;;;;;;;0.07;100.00;100274.13;5074327;28;20038;-36
2023/11/29 02:27:48;;;;;;;12.60;11.03;;;;;;;0.07;100.00;100257.34;5073739;28;20368;-35
2023/11/29 02:30:14;;;;;;;12.30;10.87;;;;;;;0.11;100.00;100262.16;5073998;28;20024;-35
2023/11/29 02:32:39;;;;;;;11.68;10.57;;;;;;;0.11;100.00;100258.66;5072722;28;20031;-35
2023/11/29 02:35:05;;;;;;;15.07;12.50;;;;;;;0.09;100.00;100261.47;5074090;28;20024;-36
2023/11/29 02:37:30;;;;;;;12.85;11.18;;;;;;;-0.07;100.00;100222.56;5074087;28;20027;-36
2023/11/29 02:39:56;;;;;;;12.17;10.73;;;;;;;0.14;100.00;100259.09;5073821;28;20537;-36
2023/11/29 02:42:22;;;;;;;12.25;10.75;;;;;;;0.18;100.00;100270.22;5073729;28;20488;-35
2023/11/29 02:44:47;;;;;;;11.75;10.55;;;;;;;0.16;100.00;100243.81;5074072;28;20342;-35
2023/11/29 02:47:12;;;;;;;11.20;10.10;;;;;;;0.05;100.00;100222.97;5073720;28;20032;-35
2023/11/29 02:49:38;;;;;;;12.07;9.87;;;;;;;0.20;100.00;100245.13;5073490;28;20032;-35
2023/11/29 02:52:03;;;;;;;11.00;9.40;;;;;;;0.19;100.00;100238.13;5074017;28;20473;-35
2023/11/29 02:54:29;;;;;;;10.45;9.38;;;;;;;0.26;100.00;100243.59;5073769;28;20446;-35
2023/11/29 02:56:54;;;;;;;9.40;8.45;;;;;;;0.28;100.00;100227.44;5073802;28;20528;-35
2023/11/29 02:59:20;;;;;;;9.47;8.50;;;;;;;0.30;100.00;100220.13;5073668;28;20154;-35
2023/11/29 03:01:45;;;;;;;9.00;8.10;;;;;;;0.30;100.00;100220.13;5073665;28;20465;-35
2023/11/29 03:04:10;;;;;;;8.87;7.57;;;;;;;0.31;100.00;100216.44;5073619;28;20043;-35
2023/11/29 03:06:35;;;;;;;10.50;9.00;;;;;;;0.32;100.00;100208.28;5073609;28;20098;-35
2023/11/29 03:09:01;;;;;;;8.80;8.00;;;;;;;0.34;100.00;100205.44;5073333;28;20397;-35
2023/11/29 03:11:26;;;;;;;8.47;7.67;;;;;;;0.30;100.00;100193.53;5073868;28;20482;-35
2023/11/29 03:13:52;;;;;;;8.03;7.33;;;;;;;0.35;100.00;100197.31;5073213;28;20035;-35
2023/11/29 03:16:17;;;;;;;8.60;7.70;;;;;;;0.37;100.00;100189.94;5073471;28;20024;-35
2023/11/29 03:18:42;;;;;;;8.67;7.77;;;;;;;0.35;100.00;100191.16;5073231;28;20027;-35
2023/11/29 03:21:07;;;;;;;8.73;7.70;;;;;;;0.24;100.00;100156.00;5073288;28;20103;-35
2023/11/29 03:23:33;;;;;;;8.67;7.87;;;;;;;0.37;100.00;100174.00;5073110;28;20039;-35
2023/11/29 03:26:07;;;;;;;8.47;7.67;;;;;;;0.41;100.00;100166.50;5072978;28;20021;-36
2023/11/29 03:28:32;;;;;;;7.90;7.10;;;;;;;0.32;100.00;100159.59;5073090;28;20039;-36
2023/11/29 03:30:58;;;;;;;8.40;7.57;;;;;;;0.30;100.00;100154.47;5073375;28;20020;-35
2023/11/29 03:33:24;;;;;;;7.70;7.00;;;;;;;0.28;100.00;100152.97;5072622;28;20040;-35
2023/11/29 03:35:49;;;;;;;8.73;7.93;;;;;;;0.34;100.00;100163.75;5072640;28;20024;-36
2023/11/29 03:38:14;;;;;;;8.33;7.53;;;;;;;0.33;100.00;100155.91;5072644;28;20284;-35
2023/11/29 03:40:41;;;;;;;8.50;7.70;;;;;;;0.32;100.00;100159.59;5072726;28;20024;-36
2023/11/29 03:43:06;;;;;;;9.02;8.13;;;;;;;0.30;100.00;100151.81;5074325;28;20036;-36
2023/11/29 03:45:32;;;;;;;8.50;7.70;;;;;;;0.35;100.00;100151.25;5077026;28;20029;-36
2023/11/29 03:47:57;;;;;;;9.73;8.40;;;;;;;0.34;100.00;100147.78;5076966;28;20028;-36
2023/11/29 03:50:22;;;;;;;8.90;8.03;;;;;;;0.27;100.00;100141.50;5076450;28;20481;-36
2023/11/29 03:52:48;;;;;;;9.23;8.33;;;;;;;0.32;100.00;100141.78;5076922;28;20048;-36
2023/11/29 03:55:13;;;;;;;9.33;8.53;;;;;;;0.32;100.00;100136.47;5076912;28;20384;-36
2023/11/29 03:57:38;;;;;;;10.57;9.23;;;;;;;0.29;100.00;100136.00;5076451;28;20393;-36
2023/11/29 04:00:04;;;;;;;8.87;8.07;;;;;;;0.29;100.00;100138.66;5076767;28;20023;-36
2023/11/29 04:02:30;;;;;;;9.45;8.50;;;;;;;0.34;100.00;100133.63;5076990;28;20108;-36
2023/11/29 04:04:55;;;;;;;9.27;8.37;;;;;;;0.34;100.00;100128.31;5076447;28;20525;-36
2023/11/29 04:07:20;;;;;;;9.37;8.20;;;;;;;0.37;100.00;100131.44;5076471;28;20523;-36
2023/11/29 04:09:46;;;;;;;10.60;9.50;;;;;;;0.39;100.00;100123.28;5076045;28;20473;-36
2023/11/29 04:12:11;;;;;;;9.37;8.40;;;;;;;0.41;100.00;100121.28;5076081;28;20500;-36
2023/11/29 04:14:37;;;;;;;10.83;9.83;;;;;;;0.38;100.00;100122.44;5076210;28;20032;-36
2023/11/29 04:17:02;;;;;;;8.85;7.95;;;;;;;0.41;100.00;100119.44;5076076;28;20025;-36
2023/11/29 04:19:28;;;;;;;8.95;8.05;;;;;;;0.43;100.00;100116.56;5076672;28;20032;-35
2023/11/29 04:21:53;;;;;;;9.37;8.00;;;;;;;0.45;100.00;100111.91;5076663;28;20052;-36
2023/11/29 04:24:19;;;;;;;9.63;7.90;;;;;;;0.42;100.00;100113.09;5075782;28;20103;-36
2023/11/29 04:26:44;;;;;;;8.80;7.90;;;;;;;0.48;100.00;100117.69;5076568;28;20377;-35
2023/11/29 04:29:10;;;;;;;10.33;8.20;;;;;;;0.49;100.00;100114.03;5075632;28;20029;-36
2023/11/29 04:31:36;;;;;;;;;;;;;;;0.53;100.00;100119.78;5076647;28;20051;-36
2023/11/29 04:34:02;;;;;;;9.07;7.88;;;;;;;0.51;100.00;100117.31;5075849;28;19959;-36
2023/11/29 04:36:27;;;;;;;9.15;8.10;;;;;;;0.55;100.00;100103.66;5076069;28;20025;-36
2023/11/29 04:38:53;;;;;;;7.90;7.10;;;;;;;0.57;100.00;100096.31;5076304;28;20021;-36
2023/11/29 04:41:19;;;;;;;8.80;7.15;;;;;;;0.58;100.00;100112.09;5076066;28;20073;-36
2023/11/29 04:43:45;;;;;;;8.30;7.13;;;;;;;0.61;100.00;100098.41;5075602;28;20031;-36
2023/11/29 04:46:11;;;;;;;8.00;7.20;;;;;;;0.62;100.00;100096.59;5075366;28;20028;-36
2023/11/29 04:48:37;;;;;;;8.07;7.25;;;;;;;0.63;100.00;100091.06;5075480;28;20028;-35
2023/11/29 04:51:03;;;;;;;9.93;7.07;;;;;;;0.63;100.00;100091.06;5076145;28;20036;-36
2023/11/29 04:53:28;;;;;;;8.63;6.93;;;;;;;0.68;100.00;100086.06;5075406;28;20082;-36
2023/11/29 04:55:55;;;;;;;8.60;7.20;;;;;;;0.70;100.00;100085.84;5075422;28;20071;-36
2023/11/29 04:58:21;;;;;;;7.88;6.68;;;;;;;0.65;100.00;100078.41;5075414;28;20035;-36
2023/11/29 05:00:47;;;;;;;7.35;6.45;;;;;;;0.67;100.00;100073.72;5075333;28;20040;-36
2023/11/29 05:03:12;;;;;;;;;;;;;;;0.77;100.00;100078.75;5075972;28;20404;-36
2023/11/29 05:05:38;;;;;;;7.07;5.72;;;;;;;0.80;100.00;100077.59;5075020;28;20049;-36
2023/11/29 05:08:03;;;;;;;11.77;6.53;;;;;;;0.80;100.00;100070.41;5075457;28;20162;-36
2023/11/29 05:10:29;;;;;;;9.07;7.53;;;;;;;0.75;100.00;100049.69;5075494;28;20404;-36
2023/11/29 05:12:54;;;;;;;8.50;6.30;;;;;;;0.84;100.00;100068.22;5075885;28;20356;-36
2023/11/29 05:15:19;;;;;;;8.60;6.37;;;;;;;0.88;100.00;100085.44;5074840;28;20024;-36
2023/11/29 05:17:45;;;;;;;9.10;6.57;;;;;;;0.90;100.00;100105.56;5074909;28;20035;-36
2023/11/29 05:20:11;;;;;;;10.93;6.90;;;;;;;0.90;100.00;100115.38;5075033;28;20140;-36
2023/11/29 05:22:36;;;;;;;6.20;5.32;;;;;;;0.92;100.00;100108.84;5075492;28;20020;-36
2023/11/29 05:25:03;;;;;;;7.60;5.47;;;;;;;0.92;100.00;100119.50;5074596;28;20435;-36
2023/11/29 05:27:29;;;;;;;7.97;6.00;;;;;;;0.94;100.00;100119.31;5075108;28;20453;-36
2023/11/29 05:29:54;;;;;;;8.95;6.57;;;;;;;0.92;100.00;100100.03;5074512;28;20059;-35
2023/11/29 05:32:19;;;;;;;7.97;6.10;;;;;;;0.90;100.00;100105.56;5075028;28;20028;-35
2023/11/29 05:34:45;;;;;;;7.17;5.77;;;;;;;0.89;100.00;100103.09;5074272;28;20361;-36
2023/11/29 05:37:10;;;;;;;5.90;5.27;;;;;;;0.87;100.00;100099.75;5074590;28;20051;-36
2023/11/29 05:39:35;;;;;;;8.47;6.20;;;;;;;0.79;100.00;100078.59;5074300;28;20025;-35
2023/11/29 05:42:04;;;;;;;8.50;5.77;;;;;;;0.84;100.00;100085.00;5074551;28;20098;-36
2023/11/29 05:44:32;;;;;;;6.38;5.57;;;;;;;0.77;100.00;100071.59;5074663;28;20025;-36
2023/11/29 05:46:59;;;;;;;8.27;6.13;;;;;;;0.80;100.00;100078.41;5073846;28;20035;-36
2023/11/29 05:49:24;;;;;;;7.03;5.45;;;;;;;0.80;100.00;100077.59;5074070;28;20036;-35
2023/11/29 05:51:49;;;;;;;7.70;5.43;;;;;;;0.88;100.00;100090.75;5074050;28;20093;-36
2023/11/29 05:54:15;;;;;;;8.03;5.70;;;;;;;0.87;100.00;100094.44;5074179;28;20032;-36
2023/11/29 05:56:40;;;;;;;7.03;5.77;;;;;;;0.92;100.00;100098.19;5074104;28;20080;-36
2023/11/29 05:59:05;;;;;;;7.03;5.63;;;;;;;0.96;100.00;100093.31;5073586;28;20313;-35
2023/11/29 06:01:31;;;;;;;8.00;6.23;;;;;;;0.94;100.00;100090.88;5074103;28;20028;-35
2023/11/29 06:03:57;;;;;;;8.30;5.70;;;;;;;0.98;100.00;100086.00;5074564;28;20021;-36
2023/11/29 06:06:22;;;;;;;7.97;5.22;;;;;;;0.94;100.00;100082.06;5073858;28;20463;-36
2023/11/29 06:08:48;;;;;;;7.97;5.50;;;;;;;1.01;100.00;100086.44;5074326;28;20024;-36
2023/11/29 06:11:13;;;;;;;7.83;6.23;;;;;;;1.06;100.00;100093.84;5073697;28;20021;-35
2023/11/29 06:13:40;;;;;;;7.43;5.60;;;;;;;1.06;100.00;100093.84;5073350;28;20491;-35
2023/11/29 06:16:07;;;;;;;8.23;5.38;;;;;;;1.11;100.00;100087.97;5073226;28;20029;-35
2023/11/29 06:18:32;;;;;;;6.93;6.20;;;;;;;1.11;100.00;100086.13;5073165;28;20056;-36
2023/11/29 06:20:58;;;;;;;9.20;6.23;;;;;;;1.14;100.00;100082.28;5073268;28;20102;-36
2023/11/29 06:23:25;;;;;;;9.77;7.18;;;;;;;1.01;100.00;100053.66;5073446;28;20059;-36
2023/11/29 06:25:51;;;;;;;9.02;6.80;;;;;;;1.13;100.00;100083.31;5073557;28;20038;-36
2023/11/29 06:28:16;;;;;;;7.72;6.47;;;;;;;1.13;100.00;100078.78;5074053;28;20028;-35
2023/11/29 06:30:42;;;;;;;7.47;6.13;;;;;;;1.16;100.00;100080.25;5073708;28;20029;-36
2023/11/29 06:33:07;;;;;;;9.33;6.23;;;;;;;1.14;100.00;100069.78;5074274;28;20059;-36
2023/11/29 06:35:33;;;;;;;6.97;6.20;;;;;;;1.07;100.00;100068.88;5074414;28;20078;-36
2023/11/29 06:37:59;;;;;;;5.95;5.35;;;;;;;1.10;100.00;100073.84;5073585;28;20027;-36
2023/11/29 06:40:24;;;;;;;5.77;5.10;;;;;;;1.12;100.00;100086.94;5074134;28;20024;-36
2023/11/29 06:42:50;;;;;;;6.73;5.30;;;;;;;1.14;100.00;100101.75;5073518;28;20054;-36
2023/11/29 06:45:19;;;;;;;6.87;5.77;;;;;;;1.12;100.00;100108.25;5073536;28;20102;-35
2023/11/29 06:47:45;;;;;;;6.60;5.90;;;;;;;1.12;100.00;100102.94;5073698;28;20258;-36
2023/11/29 06:50:11;;;;;;;6.47;5.85;;;;;;;1.07;100.00;100100.00;5073472;28;20035;-36
2023/11/29 06:52:38;;;;;;;6.13;5.40;;;;;;;1.07;100.00;100098.16;5073193;28;20024;-35
2023/11/29 06:55:03;;;;;;;5.88;5.28;;;;;;;1.01;100.00;100085.59;5073431;28;20062;-36
2023/11/29 06:57:30;;;;;;;7.85;5.68;;;;;;;1.08;100.00;100097.16;5073238;28;20123;-36
2023/11/29 06:59:55;;;;;;;5.80;4.22;;;;;;;1.09;100.00;100109.47;5073936;28;20024;-36
2023/11/29 07:02:21;;;;;;;6.13;3.78;;;;;;;1.08;100.00;100109.66;5073516;28;20055;-36
2023/11/29 07:04:48;;;;;;;5.47;3.55;;;;;;;1.06;100.00;100099.19;5073083;28;20067;-36
2023/11/29 07:07:15;;;;;;;7.35;3.38;;;;;;;1.04;100.00;100095.91;5073629;28;20036;-34
2023/11/29 07:09:40;;;;;;;5.35;3.90;;;;;;;0.98;100.00;100092.16;5073578;28;20040;-34
2023/11/29 07:12:06;;;;;;;5.93;3.43;;;;;;;1.05;100.00;100102.03;5073404;28;20380;-35
2023/11/29 07:14:31;;;;;;;5.15;2.92;;;;;;;1.06;100.00;100109.84;5073328;28;20035;-35
2023/11/29 07:16:57;;;;;;;4.67;2.23;;;;;;;1.11;100.00;100119.91;5073838;28;20467;-35
2023/11/29 07:19:22;;;;;;;5.63;2.87;;;;;;;0.93;100.00;100086.56;5077541;28;20040;-35
2023/11/29 07:21:47;;;;;;;4.60;2.73;;;;;;;1.12;100.00;100130.38;5077279;28;20099;-35
2023/11/29 07:24:13;;;;;;;2.73;1.77;;;;;;;1.14;100.00;100131.03;5076864;28;20758;-35
2023/11/29 07:26:38;;;;;;;3.13;2.43;;;;;;;1.14;100.00;100120.38;5076903;28;20070;-35
2023/11/29 07:29:08;;;;;;;4.53;2.07;;;;;;;1.14;100.00;100120.38;5093418;28;20025;-35
2023/11/29 07:31:34;;;;;;;2.72;1.63;;;;;;;1.15;100.00;100129.19;5077477;28;20074;-35
2023/11/29 07:33:59;;;;;;;2.40;1.27;;;;;;;1.13;100.00;100129.38;5077577;28;20376;-36
2023/11/29 07:36:25;;;;;;;3.63;1.58;;;;;;;1.16;100.00;100149.47;5076887;28;20021;-36
2023/11/29 07:38:50;;;;;;;2.28;1.70;;;;;;;1.17;100.00;100167.09;5076852;28;20040;-36
2023/11/29 07:41:17;;;;;;;3.10;1.60;;;;;;;1.17;100.00;100178.59;5076581;28;20029;-36
2023/11/29 07:43:43;;;;;;;3.55;1.60;;;;;;;1.21;100.00;100176.38;5077248;28;20354;-36
2023/11/29 07:46:09;;;;;;;2.50;1.67;;;;;;;1.02;100.00;100156.47;5076773;28;20033;-36
2023/11/29 07:48:35;;;;;;;2.83;1.20;;;;;;;1.20;100.00;100191.53;5077449;28;20029;-36
2023/11/29 07:51:00;;;;;;;1.95;1.52;;;;;;;1.20;100.00;100202.19;5077266;28;20025;-36
2023/11/29 07:53:26;;;;;;;2.77;1.23;;;;;;;1.17;100.00;100202.59;5076291;28;20027;-36
2023/11/29 07:55:52;;;;;;;3.15;1.30;;;;;;;1.13;100.00;100206.63;5076714;28;20386;-36
2023/11/29 07:58:17;;;;;;;2.43;1.50;;;;;;;1.12;100.00;100202.28;5076244;28;20036;-36
2023/11/29 08:00:42;;;;;;;3.27;1.40;;;;;;;1.13;100.00;100203.97;5076799;28;20526;-36
2023/11/29 08:03:08;;;;;;;4.50;1.70;;;;;;;1.13;100.00;100203.13;5076183;28;20032;-36
2023/11/29 08:05:34;;;;;;;3.37;1.40;;;;;;;1.13;100.00;100198.63;5076130;28;20389;-36
2023/11/29 08:08:00;;;;;;;5.78;1.27;;;;;;;1.17;100.00;100199.91;5076309;28;20036;-36
2023/11/29 08:10:26;;;;;;;;;;;;;;;1.21;100.00;100195.03;5077621;28;20021;-36
2023/11/29 08:12:51;;;;;;;4.28;1.48;;;;;;;1.18;100.00;100193.56;5077067;28;20250;-34
2023/11/29 08:15:17;;;;;;;3.40;1.45;;;;;;;1.15;100.00;100198.44;5076543;28;20029;-33
2023/11/29 08:17:42;;;;;;;3.07;1.50;;;;;;;1.22;100.00;100204.66;5075823;28;20408;-34
2023/11/29 08:20:09;;;;;;;2.53;1.37;;;;;;;1.23;100.00;100207.16;5076199;28;20032;-34
2023/11/29 08:22:35;;;;;;;3.28;1.23;;;;;;;1.19;100.00;100200.53;5076133;28;20123;-35
2023/11/29 08:25:00;;;;;;;3.58;1.10;;;;;;;1.30;100.00;100207.22;5076330;28;20526;-36
2023/11/29 08:27:26;;;;;;;3.07;1.30;;;;;;;1.32;100.00;100213.22;5075802;28;20025;-36
2023/11/29 08:29:54;;;;;;;4.23;1.23;;;;;;;1.16;100.00;100176.94;5076010;28;20150;-36
2023/11/29 08:32:19;;;;;;;3.03;1.20;;;;;;;1.35;100.00;100204.00;5076580;28;20055;-36
2023/11/29 08:34:45;;;;;;;2.80;1.02;;;;;;;1.40;100.00;100204.28;5075586;28;20060;-36
2023/11/29 08:37:11;;;;;;;3.40;1.20;;;;;;;1.43;100.00;100206.56;5076641;28;20033;-36
2023/11/29 08:39:37;;;;;;;2.30;1.00;;;;;;;1.44;100.00;100202.88;5075535;28;20032;-36
2023/11/29 08:42:03;;;;;;;4.00;1.50;;;;;;;1.44;100.00;100206.38;5076605;28;20115;-36
2023/11/29 08:44:30;;;;;;;2.92;1.13;;;;;;;1.49;100.00;100205.81;5075710;28;20461;-36
2023/11/29 08:46:55;;;;;;;4.10;1.15;;;;;;;1.52;100.00;100224.09;5075436;28;20393;-36
2023/11/29 08:49:20;;;;;;;2.77;1.23;;;;;;;1.55;100.00;100216.53;5075649;28;20059;-36
2023/11/29 08:51:46;;;;;;;2.77;1.20;;;;;;;1.55;100.00;100224.53;5075715;28;20468;-36
2023/11/29 08:54:11;;;;;;;4.67;1.53;;;;;;;1.57;100.00;100227.03;5075797;28;20465;-35
2023/11/29 08:56:37;;;;;;;2.63;1.30;;;;;;;1.60;100.00;100225.81;5075752;28;20044;-35
2023/11/29 08:59:04;;;;;;;5.57;1.30;;;;;;;1.61;100.00;100227.47;5075750;28;20024;-35
2023/11/29 09:01:31;;;;;;;3.58;1.65;;;;;;;1.60;100.00;100229.31;5075410;28;20286;-35
2023/11/29 09:03:57;;;;;;;2.92;1.13;;;;;;;1.60;100.00;100228.47;5075327;28;20086;-35
2023/11/29 09:06:23;;;;;;;4.07;1.35;;;;;;;1.60;100.00;100236.47;5075352;28;20033;-35
2023/11/29 09:08:48;;;;;;;3.90;1.13;;;;;;;1.62;100.00;100242.47;5075264;28;20372;-35
2023/11/29 09:11:15;;;;;;;5.43;1.10;;;;;;;1.64;100.00;100240.44;5075462;28;20066;-35
2023/11/29 09:13:40;;;;;;;4.55;1.10;;;;;;;1.73;100.00;100248.13;5075077;28;20464;-35
2023/11/29 09:16:06;;;;;;;2.97;1.10;;;;;;;1.78;100.00;100258.22;5074849;28;20031;-35
2023/11/29 09:18:32;;;;;;;2.47;1.02;;;;;;;1.83;100.00;100255.00;5074978;28;20032;-35
2023/11/29 09:20:59;;;;;;;2.23;1.00;;;;;;;1.73;100.00;100245.47;5091241;28;20035;-35
2023/11/29 09:23:25;;;;;;;2.95;1.02;;;;;;;1.87;100.00;100272.28;5074642;28;20029;-35
2023/11/29 09:25:50;;;;;;;;;;;;;;;1.92;100.00;100273.34;5075377;28;20487;-35
2023/11/29 09:28:16;;;;;;;2.77;1.23;;;;;;;1.89;100.00;100276.38;5074810;28;19956;-35
2023/11/29 09:30:42;;;;;;;1.95;1.17;;;;;;;1.83;100.00;100268.31;5075614;28;20270;-35
2023/11/29 09:33:08;;;;;;;2.20;1.05;;;;;;;1.90;100.00;100275.38;5074967;28;20376;-35
2023/11/29 09:35:33;;;;;;;4.75;1.20;;;;;;;1.92;100.00;100280.53;5074458;28;20020;-35
2023/11/29 09:37:58;;;;;;;2.43;1.37;;;;;;;1.82;100.00;100261.34;5074624;28;20534;-35
2023/11/29 09:40:24;;;;;;;4.53;1.63;;;;;;;1.93;100.00;100285.66;5073769;28;20389;-35
2023/11/29 09:42:52;;;;;;;3.65;1.60;;;;;;;1.92;100.00;100284.03;5074526;28;20028;-35
2023/11/29 09:45:23;;;;;;;3.42;1.27;;;;;;;2.00;100.00;100293.72;5075003;28;20525;-35
2023/11/29 09:47:49;;;;;;;3.72;1.20;;;;;;;2.02;100.00;100289.06;5074719;28;20039;-35
2023/11/29 09:50:17;;;;;;;4.95;1.40;;;;;;;2.01;100.00;100295.41;5074419;28;20465;-35
2023/11/29 09:52:43;;;;;;;3.50;1.52;;;;;;;2.04;100.00;100297.69;5074334;28;20064;-35
2023/11/29 09:55:09;;;;;;;6.30;1.42;;;;;;;2.03;100.00;100294.19;5074220;28;20035;-35
2023/11/29 09:57:35;;;;;;;4.80;1.40;;;;;;;2.04;100.00;100295.84;5075472;28;20044;-35
2023/11/29 10:00:02;;;;;;;2.97;1.20;;;;;;;2.08;100.00;100300.81;5074254;28;20495;-35
2023/11/29 10:02:31;;;;;;;4.80;1.23;;;;;;;2.16;100.00;100304.19;5074208;28;20020;-35
2023/11/29 10:04:59;;;;;;;3.10;1.30;;;;;;;2.26;100.00;100303.88;5074042;28;20035;-35
2023/11/29 10:07:25;;;;;;;5.68;1.65;;;;;;;2.30;100.00;100305.16;5074396;28;20032;-35
2023/11/29 10:09:50;;;;;;;;;;;;;;;2.31;100.00;100302.28;5074766;28;20029;-35
2023/11/29 10:12:16;;;;;;;2.78;1.40;;;;;;;2.33;100.00;100300.25;5074530;28;19908;-35
2023/11/29 10:14:41;;;;;;;2.43;1.50;;;;;;;2.27;100.00;100287.66;5074452;28;20035;-35
2023/11/29 10:17:13;;;;;;;3.77;1.77;;;;;;;2.40;100.00;100300.31;5073935;28;20138;-35
2023/11/29 10:19:38;;;;;;;2.78;1.48;;;;;;;2.42;100.00;100300.94;5074151;28;20266;-35
2023/11/29 10:22:04;;;;;;;4.65;1.48;;;;;;;2.33;100.00;100281.56;5074459;28;20365;-35
2023/11/29 10:24:29;;;;;;;5.32;1.45;;;;;;;2.56;100.00;100301.91;5073498;28;20025;-35
2023/11/29 10:26:55;;;;;;;3.17;1.87;;;;;;;2.61;100.00;100294.13;5074099;28;20029;-35
2023/11/29 10:29:20;;;;;;;4.13;2.10;;;;;;;2.67;100.00;100301.38;5073988;28;20274;-35
2023/11/29 10:31:50;;;;;;;3.33;1.70;;;;;;;2.64;100.00;100284.94;5074308;28;20263;-35
2023/11/29 10:34:18;;;;;;;5.82;1.90;;;;;;;2.70;100.00;100292.97;5073609;28;20028;-35
2023/11/29 10:36:44;;;;;;;5.30;1.92;;;;;;;2.72;100.00;100293.59;5073362;28;20366;-35
2023/11/29 10:39:18;;;;;;;4.05;1.70;;;;;;;2.74;100.00;100293.44;5072355;28;20035;-35
2023/11/29 10:41:50;;;;;;;4.00;1.80;;;;;;;2.70;100.00;100290.31;5074432;28;20052;-35
2023/11/29 10:44:24;;;;;;;4.05;1.52;;;;;;;2.70;100.00;100286.81;5073285;28;20029;-35
2023/11/29 10:46:56;;;;;;;4.88;1.70;;;;;;;2.72;100.00;100285.59;5073872;28;20371;-35
2023/11/29 10:49:32;;;;;;;5.60;1.55;;;;;;;2.75;100.00;100279.88;5074094;28;20070;-35
2023/11/29 10:51:58;;;;;;;4.38;1.63;;;;;;;2.70;100.00;100284.97;5073124;28;20033;-35
2023/11/29 10:54:24;;;;;;;2.47;1.60;;;;;;;2.67;100.00;100284.53;5073146;28;20427;-35
2023/11/29 10:56:49;;;;;;;3.67;2.28;;;;;;;2.64;100.00;100280.41;5073839;28;20079;-35
2023/11/29 10:59:20;;;;;;;5.38;1.88;;;;;;;2.74;100.00;100294.25;5074235;28;20038;-35
2023/11/29 11:01:47;;;;;;;5.80;1.80;;;;;;;2.78;100.00;100290.19;5073770;28;20028;-35
2023/11/29 11:04:13;;;;;;;4.75;2.30;;;;;;;2.79;100.00;100285.66;5073348;28;20023;-35
2023/11/29 11:06:42;;;;;;;;;;;;;;;2.94;100.00;100293.59;5074344;28;20024;-36
2023/11/29 11:09:32;;;;;;;7.10;2.35;;;;;;;2.98;100.00;100289.50;5073321;28;19931;-36
2023/11/29 11:12:00;;;;;;;6.85;2.67;;;;;;;3.10;100.00;100290.59;5073608;28;20047;-36
2023/11/29 11:14:34;;;;;;;4.10;2.10;;;;;;;3.24;100.00;100284.31;5073222;28;20025;-36
2023/11/29 11:17:03;;;;;;;5.60;2.55;;;;;;;3.40;100.00;100279.66;5074017;28;20361;-36
2023/11/29 11:19:38;;;;;;;7.03;3.30;;;;;;;3.44;100.00;100276.41;5073460;28;20035;-36